createdAt,value
2019-03-26T10:12:48.949Z,17.80
2019-03-26T10:22:50.247Z,18.40
2019-03-26T10:32:51.573Z,17.40
2019-03-26T10:42:52.918Z,17.70
2019-03-26T16:51:31.976Z,8.20
2019-03-26T17:01:33.274Z,7.90
2019-03-26T17:11:34.549Z,7.70
2019-03-26T17:21:36.925Z,7.50
2019-03-26T17:31:38.237Z,7.40
2019-03-26T17:41:45.469Z,7.30
2019-03-26T17:51:50.335Z,6.90
2019-03-26T18:01:54.394Z,6.20
2019-03-26T18:11:53.717Z,6.20
2019-03-26T18:21:55.015Z,5.90
2019-03-26T18:31:56.310Z,5.50
2019-03-26T18:41:57.664Z,5.30
2019-03-26T18:51:58.948Z,5.20
2019-03-26T19:02:04.400Z,4.30
2019-03-26T19:12:05.693Z,4.30
2019-03-26T19:22:06.986Z,3.90
2019-03-26T19:32:08.307Z,3.80
2019-03-26T19:42:10.605Z,3.50
2019-03-26T19:52:13.614Z,3.40
2019-03-26T20:02:14.925Z,3.10
2019-03-26T20:22:23.486Z,2.70
2019-03-26T20:32:24.973Z,2.70
2019-03-26T20:42:26.279Z,2.70
2019-03-26T20:52:27.545Z,2.70
2019-03-26T21:02:28.830Z,2.40
2019-03-26T21:12:31.229Z,2.30
2019-03-26T21:22:33.315Z,2.10
2019-03-26T21:32:34.617Z,2.10
2019-03-26T21:42:36.187Z,2.10
2019-03-26T21:52:37.638Z,1.60
2019-03-26T22:02:38.938Z,1.40
2019-03-26T22:12:42.831Z,1.40
2019-03-26T22:22:44.451Z,1.40
2019-03-26T22:32:45.970Z,1.30
2019-03-26T22:42:48.855Z,1.00
2019-03-26T22:52:50.488Z,0.90
2019-03-26T23:02:52.656Z,0.90
2019-03-26T23:12:54.220Z,1.10
2019-03-26T23:22:56.775Z,1.40
2019-03-26T23:32:58.257Z,1.70
2019-03-26T23:42:59.681Z,1.80
2019-03-26T23:53:04.119Z,1.90
